createdAt,value
2023-04-14T00:00:52.311Z,7.40
2023-04-14T00:03:20.608Z,7.50
2023-04-14T00:05:48.868Z,6.40
2023-04-14T00:08:17.149Z,6.27
2023-04-14T00:10:45.271Z,7.60
2023-04-14T00:13:14.805Z,6.50
2023-04-14T00:15:43.775Z,7.30
2023-04-14T00:18:11.925Z,7.23
2023-04-14T00:20:40.121Z,6.83
2023-04-14T00:23:08.722Z,6.77
2023-04-14T00:25:36.957Z,6.93
2023-04-14T00:28:05.084Z,7.17
2023-04-14T00:30:34.978Z,7.23
2023-04-14T00:33:03.264Z,6.33
2023-04-14T00:35:32.468Z,6.37
2023-04-14T00:38:01.077Z,6.90
2023-04-14T00:40:31.065Z,7.17
2023-04-14T00:42:59.216Z,7.33
2023-04-14T00:45:28.348Z,7.03
2023-04-14T00:47:59.907Z,6.53
2023-04-14T00:50:28.214Z,6.33
2023-04-14T00:52:57.581Z,6.90
2023-04-14T00:55:26.600Z,6.30
2023-04-14T00:57:55.811Z,6.40
2023-04-14T01:00:24.307Z,6.10
2023-04-14T01:02:53.478Z,6.30
2023-04-14T01:05:23.292Z,6.13
2023-04-14T01:07:51.741Z,5.73
2023-04-14T01:10:20.672Z,6.13
2023-04-14T01:13:06.580Z,6.43
2023-04-14T01:15:40.273Z,6.63
2023-04-14T01:18:16.417Z,7.07
2023-04-14T01:20:50.990Z,6.27
2023-04-14T01:23:25.393Z,6.40
2023-04-14T01:26:19.664Z,6.67
2023-04-14T01:29:23.427Z,5.73
2023-04-14T01:31:59.084Z,6.10
2023-04-14T01:34:34.956Z,5.77
2023-04-14T01:37:08.241Z,6.77
2023-04-14T01:39:40.150Z,6.20
2023-04-14T01:42:12.529Z,6.97
2023-04-14T01:44:42.646Z,6.60
2023-04-14T01:47:16.642Z,6.03
2023-04-14T01:49:47.906Z,5.53
2023-04-14T01:52:18.423Z,5.37
2023-04-14T01:54:51.694Z,6.27
2023-04-14T01:57:22.942Z,5.77
2023-04-14T01:59:53.180Z,6.67
2023-04-14T02:02:24.591Z,6.07
2023-04-14T02:04:53.895Z,5.30
2023-04-14T02:07:24.021Z,5.83
2023-04-14T02:09:54.770Z,5.67
2023-04-14T02:12:27.983Z,6.43
2023-04-14T02:14:56.846Z,5.37
2023-04-14T02:17:27.273Z,5.37
2023-04-14T02:19:57.168Z,5.43
2023-04-14T02:22:25.284Z,5.77
2023-04-14T02:24:55.230Z,5.70
2023-04-14T02:27:31.966Z,5.67
2023-04-14T02:30:04.396Z,5.43
2023-04-14T02:32:37.504Z,5.97
2023-04-14T02:35:12.133Z,5.57
2023-04-14T02:37:43.900Z,5.73
2023-04-14T02:40:18.281Z,5.30
2023-04-14T02:42:49.918Z,5.67
2023-04-14T02:45:23.483Z,6.27
2023-04-14T02:47:57.064Z,5.80
2023-04-14T02:50:26.703Z,5.77
2023-04-14T02:52:56.782Z,6.27
2023-04-14T02:55:26.117Z,5.73
2023-04-14T02:57:55.865Z,5.30
2023-04-14T03:00:25.426Z,5.63
2023-04-14T03:02:55.964Z,5.40
2023-04-14T03:05:25.751Z,5.93
2023-04-14T03:07:56.979Z,5.10
2023-04-14T03:10:27.792Z,5.50
2023-04-14T03:12:57.638Z,6.40
2023-04-14T03:19:10.473Z,5.70
2023-04-14T03:21:40.002Z,5.57
2023-04-14T03:24:09.078Z,5.30
2023-04-14T03:26:39.113Z,5.20
2023-04-14T03:29:08.893Z,5.87
2023-04-14T03:31:39.203Z,6.53
2023-04-14T03:34:10.153Z,5.50
2023-04-14T03:36:39.843Z,5.70
2023-04-14T03:39:12.677Z,5.77
2023-04-14T03:41:43.632Z,5.17
2023-04-14T03:44:15.887Z,5.40
2023-04-14T03:46:44.552Z,5.87
2023-04-14T03:49:16.992Z,6.13
2023-04-14T03:51:47.829Z,5.37
2023-04-14T03:54:18.831Z,5.77
2023-04-14T03:56:49.176Z,5.70
2023-04-14T03:59:21.330Z,5.83
2023-04-14T04:01:50.179Z,6.27
2023-04-14T04:04:21.380Z,5.33
2023-04-14T04:06:50.696Z,6.60
2023-04-14T04:09:20.548Z,5.47
2023-04-14T04:11:52.708Z,5.60
2023-04-14T04:14:23.728Z,6.43
2023-04-14T04:16:52.787Z,5.60
2023-04-14T04:19:24.093Z,5.10
2023-04-14T04:21:57.020Z,6.47
2023-04-14T04:24:30.399Z,5.73
2023-04-14T04:26:59.814Z,5.67
2023-04-14T04:29:28.378Z,4.80
2023-04-14T04:31:57.181Z,5.47
2023-04-14T04:34:27.454Z,5.70
2023-04-14T04:36:56.043Z,5.60
2023-04-14T04:39:24.644Z,6.90
2023-04-14T04:42:02.181Z,6.17
2023-04-14T04:44:30.723Z,5.70
2023-04-14T04:46:58.911Z,6.20
2023-04-14T04:49:28.847Z,5.67
2023-04-14T04:51:57.786Z,5.27
2023-04-14T04:54:27.166Z,6.27
2023-04-14T04:56:57.623Z,5.73
2023-04-14T04:59:26.179Z,5.70
2023-04-14T05:01:54.623Z,6.13
2023-04-14T05:04:22.938Z,5.20
2023-04-14T05:06:52.775Z,6.27
2023-04-14T05:09:21.004Z,5.53
2023-04-14T05:11:49.369Z,6.70
2023-04-14T05:14:17.589Z,6.60
2023-04-14T05:16:46.150Z,6.13
2023-04-14T05:19:15.087Z,5.90
2023-04-14T05:21:43.446Z,5.30
2023-04-14T05:24:13.017Z,7.10
2023-04-14T05:29:12.832Z,6.70
2023-04-14T05:31:41.035Z,7.80
2023-04-14T05:34:09.266Z,6.37
2023-04-14T05:36:37.663Z,7.27
2023-04-14T05:39:05.750Z,6.07
2023-04-14T05:41:35.331Z,6.20
2023-04-14T05:44:04.745Z,5.97
2023-04-14T05:46:33.563Z,6.27
2023-04-14T05:49:02.099Z,6.00
2023-04-14T05:51:30.486Z,6.33
2023-04-14T05:53:58.776Z,5.37
2023-04-14T05:56:27.206Z,6.07
2023-04-14T05:58:57.147Z,6.27
2023-04-14T06:01:25.447Z,5.37
2023-04-14T06:03:53.942Z,6.23
2023-04-14T06:06:22.547Z,5.83
2023-04-14T06:08:51.054Z,6.23
2023-04-14T06:11:19.204Z,6.97
2023-04-14T06:13:47.622Z,6.93
2023-04-14T06:16:17.277Z,7.17
2023-04-14T06:18:45.468Z,6.23
2023-04-14T06:21:13.785Z,6.97
2023-04-14T06:23:42.077Z,6.90
2023-04-14T06:26:10.524Z,5.97
2023-04-14T06:28:38.794Z,7.50
2023-04-14T06:31:07.222Z,6.10
2023-04-14T06:33:36.769Z,6.43
2023-04-14T06:36:05.460Z,5.50
2023-04-14T06:38:33.661Z,5.77
2023-04-14T06:41:02.017Z,7.07
2023-04-14T06:43:30.285Z,6.73
2023-04-14T06:45:58.489Z,5.90
2023-04-14T06:48:27.398Z,5.67
2023-04-14T06:50:58.279Z,6.77
2023-04-14T06:53:26.941Z,5.93
2023-04-14T06:56:00.578Z,6.27
2023-04-14T06:58:29.613Z,5.93
2023-04-14T07:00:58.311Z,5.40
2023-04-14T07:03:27.105Z,6.13
2023-04-14T07:06:02.923Z,5.47
2023-04-14T07:08:33.146Z,5.67
2023-04-14T07:11:02.176Z,5.70
2023-04-14T07:13:30.805Z,6.20
2023-04-14T07:15:59.284Z,5.97
2023-04-14T07:18:27.654Z,5.70
2023-04-14T07:20:57.273Z,5.87
2023-04-14T07:23:25.522Z,5.77
2023-04-14T07:25:54.910Z,5.73
2023-04-14T07:28:24.358Z,5.83
2023-04-14T07:30:53.193Z,5.50
2023-04-14T07:33:22.486Z,5.50
2023-04-14T07:36:00.630Z,5.60
2023-04-14T07:38:32.400Z,4.50
2023-04-14T07:41:01.430Z,4.63
2023-04-14T07:43:34.805Z,5.33
2023-04-14T07:46:04.454Z,5.30
2023-04-14T07:48:33.002Z,4.67
2023-04-14T07:51:01.758Z,5.27
2023-04-14T07:53:31.999Z,4.87
2023-04-14T07:56:00.817Z,5.10
2023-04-14T07:58:29.681Z,4.40
2023-04-14T08:00:58.432Z,4.73
2023-04-14T08:03:27.233Z,4.83
2023-04-14T08:05:55.682Z,5.03
2023-04-14T08:08:24.342Z,5.30
2023-04-14T08:10:54.022Z,4.77
2023-04-14T08:13:22.341Z,4.70
2023-04-14T08:15:50.768Z,3.70
2023-04-14T08:18:19.317Z,4.87
2023-04-14T08:20:47.608Z,4.80
2023-04-14T08:23:16.228Z,4.03
2023-04-14T08:25:44.850Z,4.60
2023-04-14T08:28:15.125Z,4.13
2023-04-14T08:30:43.308Z,4.23
2023-04-14T08:33:11.706Z,3.77
2023-04-14T08:35:42.737Z,4.70
2023-04-14T08:38:11.237Z,4.80
2023-04-14T08:40:41.390Z,4.20
2023-04-14T08:43:13.195Z,4.83
2023-04-14T08:45:45.615Z,4.17
2023-04-14T08:48:17.490Z,3.70
2023-04-14T08:50:59.535Z,4.50
2023-04-14T08:53:29.648Z,4.40
2023-04-14T08:56:00.131Z,4.30
2023-04-14T08:58:29.247Z,4.03
2023-04-14T09:00:59.659Z,4.00
2023-04-14T09:03:28.430Z,3.40
2023-04-14T09:05:57.334Z,4.00
2023-04-14T09:08:26.370Z,3.87
2023-04-14T09:10:54.858Z,3.60
2023-04-14T09:13:23.904Z,4.03
2023-04-14T09:15:52.458Z,3.80
2023-04-14T09:18:23.014Z,4.57
2023-04-14T09:21:50.795Z,4.00
2023-04-14T09:23:41.870Z,3.83
2023-04-14T09:26:10.832Z,4.07
2023-04-14T09:28:39.430Z,4.13
2023-04-14T09:31:08.351Z,4.33
2023-04-14T09:33:44.687Z,4.60
2023-04-14T09:36:19.678Z,4.03
2023-04-14T09:38:48.463Z,4.33
2023-04-14T09:41:21.788Z,4.20
2023-04-14T09:43:50.615Z,4.23
2023-04-14T09:46:18.848Z,3.60
2023-04-14T09:48:56.681Z,4.77
2023-04-14T09:51:27.959Z,4.63
2023-04-14T09:53:56.548Z,4.17
2023-04-14T09:56:28.962Z,4.30
2023-04-14T09:59:00.879Z,4.47
2023-04-14T10:01:32.481Z,3.87
2023-04-14T10:04:03.487Z,3.67
2023-04-14T10:06:32.606Z,3.67
2023-04-14T10:09:01.582Z,4.00
2023-04-14T10:11:32.396Z,3.90
2023-04-14T10:14:02.509Z,4.67
2023-04-14T10:16:30.897Z,4.93
2023-04-14T10:19:00.065Z,4.90
2023-04-14T10:21:30.270Z,3.37
2023-04-14T10:23:58.949Z,4.80
2023-04-14T10:26:27.936Z,4.27
2023-04-14T10:28:57.594Z,4.80
2023-04-14T10:31:30.068Z,4.80
2023-04-14T10:33:58.526Z,4.20
2023-04-14T10:36:28.165Z,4.83
2023-04-14T10:39:03.279Z,4.87
2023-04-14T10:41:46.501Z,4.27
2023-04-14T10:44:28.617Z,4.23
2023-04-14T10:46:57.595Z,4.53
2023-04-14T10:49:30.508Z,4.90
2023-04-14T10:52:01.099Z,4.77
2023-04-14T10:54:49.292Z,4.50
2023-04-14T10:57:19.336Z,4.40
2023-04-14T10:59:48.120Z,4.30
2023-04-14T11:02:27.040Z,4.87
2023-04-14T11:05:06.786Z,5.07
2023-04-14T11:07:40.741Z,5.60
2023-04-14T11:10:31.852Z,3.93
2023-04-14T11:13:05.064Z,3.83
2023-04-14T11:15:53.187Z,4.33
2023-04-14T11:18:33.984Z,3.70
2023-04-14T11:21:06.710Z,4.67
2023-04-14T11:23:35.941Z,5.07
2023-04-14T11:26:07.421Z,3.77
2023-04-14T11:28:37.123Z,4.10
2023-04-14T11:31:06.498Z,4.13
2023-04-14T11:33:36.481Z,4.10
2023-04-14T11:36:05.955Z,4.20
2023-04-14T11:38:36.625Z,4.33
2023-04-14T11:41:06.714Z,3.27
2023-04-14T11:43:34.911Z,4.33
2023-04-14T11:46:08.399Z,4.03
2023-04-14T11:48:37.078Z,4.27
2023-04-14T11:51:06.732Z,4.40
2023-04-14T11:53:35.038Z,3.90
2023-04-14T11:56:03.911Z,3.90
2023-04-14T11:58:33.887Z,4.43
2023-04-14T12:01:02.461Z,3.67
2023-04-14T12:03:33.078Z,3.90
2023-04-14T12:06:02.830Z,3.70
2023-04-14T12:08:32.333Z,3.83
2023-04-14T12:11:13.333Z,5.00
2023-04-14T12:13:43.450Z,4.23
2023-04-14T12:16:12.149Z,4.10
2023-04-14T12:18:40.674Z,4.20
2023-04-14T12:21:11.721Z,3.67
2023-04-14T12:23:41.408Z,4.10
2023-04-14T12:26:12.134Z,3.90
2023-04-14T12:28:41.835Z,3.93
2023-04-14T12:31:12.632Z,3.40
2023-04-14T12:33:40.976Z,3.80
2023-04-14T12:36:13.157Z,4.03
2023-04-14T12:38:41.711Z,4.00
2023-04-14T12:41:10.906Z,3.43
2023-04-14T12:43:40.772Z,3.80
2023-04-14T12:46:09.428Z,3.70
2023-04-14T12:48:47.129Z,3.83
2023-04-14T12:51:17.340Z,3.93
2023-04-14T12:53:46.979Z,3.93
2023-04-14T12:56:16.748Z,4.40
2023-04-14T12:58:47.087Z,4.70
2023-04-14T13:01:18.462Z,4.63
2023-04-14T13:03:50.373Z,3.47
2023-04-14T13:06:20.172Z,3.20
2023-04-14T13:08:49.411Z,3.67
2023-04-14T13:11:18.995Z,3.73
2023-04-14T13:13:47.929Z,3.83
2023-04-14T13:16:17.747Z,3.67
2023-04-14T13:18:49.425Z,4.27
2023-04-14T13:21:17.824Z,3.60
2023-04-14T13:23:46.074Z,3.73
2023-04-14T13:26:14.545Z,4.27
2023-04-14T13:28:42.909Z,4.00
2023-04-14T13:31:13.097Z,4.13
2023-04-14T13:33:41.670Z,3.80
2023-04-14T13:36:11.347Z,4.43
2023-04-14T13:38:39.574Z,4.17
2023-04-14T13:41:07.868Z,4.40
2023-04-14T13:43:36.237Z,4.43
2023-04-14T13:46:04.522Z,4.00
2023-04-14T13:48:33.152Z,4.77
2023-04-14T13:51:02.199Z,3.83
2023-04-14T13:53:32.443Z,3.27
2023-04-14T13:56:00.842Z,4.13
2023-04-14T13:58:29.132Z,3.67
2023-04-14T14:00:57.407Z,3.67
2023-04-14T14:03:27.885Z,4.00
2023-04-14T14:05:57.380Z,4.40
2023-04-14T14:08:26.102Z,3.70
2023-04-14T14:10:56.079Z,3.90
2023-04-14T14:13:24.343Z,3.47
2023-04-14T14:15:52.911Z,3.73
2023-04-14T14:18:21.823Z,3.30
2023-04-14T14:20:51.055Z,4.13
2023-04-14T14:23:19.227Z,3.77
2023-04-14T14:25:47.801Z,4.23
2023-04-14T14:28:17.698Z,3.40
2023-04-14T14:30:46.020Z,3.83
2023-04-14T14:33:15.115Z,3.80
2023-04-14T14:35:43.544Z,3.90
2023-04-14T14:38:11.761Z,3.90
2023-04-14T14:40:40.647Z,4.17
2023-04-14T14:43:08.872Z,4.63
2023-04-14T14:45:38.575Z,4.10
2023-04-14T14:48:07.305Z,4.00
2023-04-14T14:50:35.547Z,4.50
2023-04-14T14:53:03.683Z,4.37
2023-04-14T14:55:32.360Z,4.23
2023-04-14T14:58:00.987Z,3.73
2023-04-14T15:00:29.086Z,4.03
2023-04-14T15:02:59.140Z,4.10
2023-04-14T15:05:27.628Z,3.93
2023-04-14T15:07:56.045Z,4.27
2023-04-14T15:10:25.679Z,3.77
2023-04-14T15:12:54.856Z,3.43
2023-04-14T15:15:22.979Z,3.77
2023-04-14T15:17:51.283Z,4.07
2023-04-14T15:20:21.002Z,3.63
2023-04-14T15:22:49.130Z,3.63
2023-04-14T15:25:17.609Z,4.00
2023-04-14T15:27:45.779Z,3.83
2023-04-14T15:30:14.485Z,3.43
2023-04-14T15:32:43.065Z,3.60
2023-04-14T15:35:11.726Z,4.10
2023-04-14T15:37:41.354Z,3.70
2023-04-14T15:40:12.022Z,3.80
2023-04-14T15:42:40.204Z,3.97
2023-04-14T15:45:09.475Z,4.10
2023-04-14T15:47:37.911Z,3.50
2023-04-14T15:50:09.908Z,4.73
2023-04-14T15:52:40.929Z,4.20
2023-04-14T15:55:10.656Z,4.67
2023-04-14T15:57:38.932Z,3.80
2023-04-14T16:00:08.445Z,4.07
2023-04-14T16:02:37.042Z,3.90
2023-04-14T16:05:06.259Z,4.23
2023-04-14T16:07:34.781Z,3.93
2023-04-14T16:10:06.424Z,4.60
2023-04-14T16:12:36.777Z,4.43
2023-04-14T16:15:08.205Z,4.00
2023-04-14T16:17:36.500Z,4.30
2023-04-14T16:20:05.688Z,4.00
2023-04-14T16:22:34.283Z,4.10
2023-04-14T16:25:04.429Z,3.90
2023-04-14T16:27:32.680Z,4.53
2023-04-14T16:30:00.998Z,4.13
2023-04-14T16:32:29.880Z,4.63
2023-04-14T16:34:58.325Z,3.73
2023-04-14T16:37:27.504Z,4.47
2023-04-14T16:39:56.386Z,4.30
2023-04-14T16:42:26.354Z,4.13
2023-04-14T16:44:54.985Z,4.77
2023-04-14T16:47:24.122Z,4.27
2023-04-14T16:49:53.008Z,4.80
2023-04-14T16:52:21.383Z,4.10
2023-04-14T16:54:49.770Z,4.73
2023-04-14T16:57:18.525Z,4.83
2023-04-14T16:59:48.691Z,4.73
2023-04-14T17:02:17.247Z,4.13
2023-04-14T17:04:45.877Z,4.43
2023-04-14T17:07:14.301Z,4.43
2023-04-14T17:09:42.853Z,5.10
2023-04-14T17:12:11.492Z,4.43
2023-04-14T17:14:39.788Z,4.53
2023-04-14T17:17:09.291Z,4.93
2023-04-14T17:19:37.664Z,4.10
2023-04-14T17:22:05.888Z,4.93
2023-04-14T17:24:34.160Z,3.70
2023-04-14T17:27:02.417Z,6.07
2023-04-14T17:29:30.624Z,4.77
2023-04-14T17:31:59.177Z,4.37
2023-04-14T17:34:29.472Z,4.40
2023-04-14T17:36:58.814Z,4.43
2023-04-14T17:39:27.872Z,5.03
2023-04-14T17:41:58.012Z,4.40
2023-04-14T17:44:32.993Z,4.27
2023-04-14T17:47:03.143Z,4.70
2023-04-14T17:49:34.206Z,5.70
2023-04-14T17:52:02.702Z,4.30
2023-04-14T17:54:31.231Z,4.77
2023-04-14T17:56:59.513Z,4.67
2023-04-14T17:59:27.656Z,5.43
2023-04-14T18:01:56.223Z,4.83
2023-04-14T18:04:24.557Z,4.60
2023-04-14T18:06:56.686Z,5.07
2023-04-14T18:09:25.256Z,4.77
2023-04-14T18:11:53.452Z,5.30
2023-04-14T18:14:21.718Z,4.20
2023-04-14T18:16:50.249Z,5.17
2023-04-14T18:19:18.736Z,4.33
2023-04-14T18:21:47.801Z,4.97
2023-04-14T18:26:48.555Z,4.27
2023-04-14T18:29:16.811Z,4.13
2023-04-14T18:31:45.083Z,5.17
2023-04-14T18:34:13.994Z,5.37
2023-04-14T18:36:42.157Z,4.27
2023-04-14T18:39:10.582Z,5.17
2023-04-14T18:41:40.418Z,5.43
2023-04-14T18:44:09.659Z,5.77
2023-04-14T18:46:39.035Z,4.57
2023-04-14T18:49:07.177Z,5.70
2023-04-14T18:51:35.627Z,5.50
2023-04-14T18:54:04.020Z,5.37
2023-04-14T18:56:32.607Z,4.73
2023-04-14T18:59:02.600Z,4.83
2023-04-14T19:01:33.567Z,5.00
2023-04-14T19:04:03.392Z,4.87
2023-04-14T19:06:31.803Z,4.23
2023-04-14T19:09:01.397Z,5.57
2023-04-14T19:11:30.116Z,6.40
2023-04-14T19:13:58.260Z,4.80
2023-04-14T19:16:27.925Z,5.13
2023-04-14T19:18:56.112Z,4.77
2023-04-14T19:21:24.272Z,4.70
2023-04-14T19:23:54.536Z,4.50
2023-04-14T19:26:22.727Z,5.17
2023-04-14T19:28:52.480Z,4.17
2023-04-14T19:31:21.527Z,5.50
2023-04-14T19:33:51.332Z,5.10
2023-04-14T19:36:19.623Z,4.97
2023-04-14T19:38:47.894Z,4.43
2023-04-14T19:41:16.120Z,4.57
2023-04-14T19:43:45.713Z,4.20
2023-04-14T19:46:14.002Z,5.07
2023-04-14T19:48:42.132Z,5.23
2023-04-14T19:51:11.773Z,4.60
2023-04-14T19:53:40.177Z,4.07
2023-04-14T19:56:08.816Z,5.00
2023-04-14T19:58:36.973Z,4.90
2023-04-14T20:01:05.908Z,4.87
2023-04-14T20:03:34.960Z,4.30
2023-04-14T20:06:03.362Z,4.43
2023-04-14T20:08:33.365Z,4.07
2023-04-14T20:11:01.669Z,4.87
2023-04-14T20:13:32.147Z,4.83
2023-04-14T20:16:01.658Z,4.63
2023-04-14T20:18:30.066Z,4.70
2023-04-14T20:20:58.964Z,4.30
2023-04-14T20:23:28.028Z,5.13
2023-04-14T20:25:57.827Z,5.57
2023-04-14T20:28:26.591Z,4.50
2023-04-14T20:30:56.155Z,4.63
2023-04-14T20:33:25.188Z,4.27
2023-04-14T20:35:54.314Z,4.93
2023-04-14T20:38:23.803Z,5.07
2023-04-14T20:40:52.280Z,5.10
2023-04-14T20:43:22.336Z,5.33
2023-04-14T20:45:52.783Z,4.83
2023-04-14T20:48:21.533Z,4.27
2023-04-14T20:50:50.496Z,4.57
2023-04-14T20:53:22.106Z,4.90
2023-04-14T20:55:51.057Z,5.37
2023-04-14T20:58:19.355Z,5.17
2023-04-14T21:00:49.309Z,5.50
2023-04-14T21:03:18.275Z,4.80
2023-04-14T21:05:47.396Z,5.27
2023-04-14T21:08:15.688Z,4.10
2023-04-14T21:11:14.515Z,4.30
2023-04-14T21:15:34.705Z,4.90
2023-04-14T21:16:22.166Z,4.27
2023-04-14T21:18:50.595Z,4.53
2023-04-14T21:21:18.746Z,4.93
2023-04-14T21:23:47.045Z,4.53
2023-04-14T21:26:15.409Z,5.27
2023-04-14T21:28:43.524Z,4.87
2023-04-14T21:31:11.855Z,4.97
2023-04-14T21:33:42.002Z,5.33
2023-04-14T21:36:10.894Z,5.40
2023-04-14T21:38:39.643Z,4.10
2023-04-14T21:41:09.508Z,5.17
2023-04-14T21:43:38.568Z,4.83
2023-04-14T21:46:07.234Z,4.90
2023-04-14T21:48:35.858Z,4.40
2023-04-14T21:51:05.815Z,4.70
2023-04-14T21:53:34.151Z,4.60
2023-04-14T21:56:10.408Z,4.17
2023-04-14T21:58:40.286Z,4.57
2023-04-14T22:01:10.016Z,4.77
2023-04-14T22:03:40.668Z,4.63
2023-04-14T22:06:11.472Z,4.67
2023-04-14T22:08:40.655Z,5.00
2023-04-14T22:11:09.000Z,4.90
2023-04-14T22:13:37.438Z,4.27
2023-04-14T22:16:05.861Z,4.70
2023-04-14T22:18:35.934Z,4.83
2023-04-14T22:21:04.888Z,5.37
2023-04-14T22:23:34.671Z,5.37
2023-04-14T22:26:03.584Z,4.50
2023-04-14T22:28:31.848Z,3.90
2023-04-14T22:31:00.303Z,4.70
2023-04-14T22:33:28.529Z,4.30
2023-04-14T22:35:56.848Z,3.93
2023-04-14T22:38:25.103Z,4.57
2023-04-14T22:40:54.766Z,5.07
2023-04-14T22:43:23.012Z,4.47
2023-04-14T22:45:51.694Z,4.10
2023-04-14T22:48:19.947Z,4.13
2023-04-14T22:50:48.280Z,5.70
2023-04-14T22:53:16.570Z,4.77
2023-04-14T22:55:45.222Z,4.00
2023-04-14T22:58:17.044Z,4.07
2023-04-14T23:00:46.113Z,4.60
2023-04-14T23:03:14.379Z,4.27
2023-04-14T23:05:43.018Z,4.37
2023-04-14T23:08:11.343Z,4.63
2023-04-14T23:10:39.553Z,4.73
2023-04-14T23:13:08.354Z,4.37
2023-04-14T23:15:38.182Z,4.43
2023-04-14T23:18:06.490Z,4.17
2023-04-14T23:20:34.853Z,3.90
2023-04-14T23:23:03.596Z,4.33
2023-04-14T23:25:31.760Z,4.50
2023-04-14T23:27:59.992Z,4.97
2023-04-14T23:30:28.838Z,3.23
2023-04-14T23:32:58.473Z,4.20
2023-04-14T23:35:26.842Z,3.77
2023-04-14T23:37:56.558Z,4.30
2023-04-14T23:40:24.659Z,4.13
2023-04-14T23:42:56.267Z,4.23
2023-04-14T23:45:24.844Z,4.13
2023-04-14T23:47:53.857Z,3.73
2023-04-14T23:50:23.618Z,4.10
2023-04-14T23:53:11.815Z,3.80
2023-04-14T23:55:40.248Z,4.43
2023-04-14T23:58:08.468Z,4.27
